Terminal Aerodrome Forecast
Issued by NWS Bismarck, ND

Home | Current Version | Previous Version | Graphics & Text | Print | Product List | Glossary On
Versions: 1 2 3 4 5 6 7 8 9 10 11 12 13 14 15 16 17 18
000
FTUS43 KBIS 010500
TAFISN
TAF
KISN 010535Z 0106/0206 08007KT P6SM SCT150 SCT250
     FM011000 05006KT P6SM SCT070 BKN150 OVC250
     FM011800 09010KT P6SM SCT070 SCT150=

USA.gov is the U.S. government's official web portal to all federal, state and local government web resources and services.